Warrensburg, NY (12885)

6:33 PM EST on March 01, 2015 (GMT -0500)
APRSWXNET Lake George NY US | Change Station
CLOSE
Current Station
Personal Weather Station
Location: Lake George, NY
Elevation: 935 ft
Nearby Weather Stations

Elev 935 ft 43.39 °N, 73.73 °W | Updated 33 minutes ago

Snow
Snow
20 °F
Feels Like 20 °F
N
1
Wind Variable Wind from North
Gusts 0.0 mph

Today
High -- | Low -- °F
--% Chance of Precip.
Yesterday
High -- | Low -- °F
Precip. -- in
6:31 AM 5:43 PM
Waxing Gibbous, 88% visible
Pressure 30.26 in
Visibility 1.5 miles
Clouds Few 1400 ft
Overcast 2800 ft
Windchill 20 °F
Dew Point 17 °F
Humidity 88%
Rainfall -999.00 in
Snow Depth Not available.
UV 0 out of 12
Pollen .40 out of 12
Air Quality Not available.
Flu Activity Not available.
SPECI KGFL 012318Z AUTO 20005KT 1 1/2SM -SN FEW014 OVC028 M04/M07 A3026 RMK AO2 P0000 T10441072

More Conditions Fewer Conditions

Pressure 30.26 in
Visibility 1.5 miles
Clouds Few 1400 ft
Overcast 2800 ft
Windchill 20 °F
Dew Point 17 °F
Humidity 88%
Rainfall -999.00 in
Snow Depth Not available.
UV 0 out of 12
Pollen .40 out of 12
Air Quality Not available.
Flu Activity Not available.
SPECI KGFL 012318Z AUTO 20005KT 1 1/2SM -SN FEW014 OVC028 M04/M07 A3026 RMK AO2 P0000 T10441072

More Conditions Fewer Conditions

10-Day Weather Forecast

Almanac

Astronomy

Mar. 01, 2015 Rise Set
Actual Time
Civil Twilight
Nautical Twilight
Astronomical Twilight
Moon
Length of Visible Light
Length of Day
Tomorrow will be .
, % of the Moon is Illuminated

Today's Extremes

State Highs State Lows

Community

WunderPhotos

Upload Photos

1,801,610 photos uploaded!

WunderBlogs® & News

Nearby

Air Quality

  Air Quality AQ Index Pollutant
Not available.

Snow Depth

Station Depth Elevation

Earthquake Activity

City Distance Mag. Time & Date
Minimum magnitude displayed is 2.5.

Coastal Water Temperatures

Place Temperature

Nearby Weather Stations